Time;durP1;ratioP1;P1;durP2;ratioP2;P2;SDS_P1;SDS_P2;PMS_P1;PMS_P2;Temp;Humidity;BMP_temperature;BMP_pressure;BME280_temperature;BME280_humidity;BME280_pressure;Samples;Min_cycle;Max_cycle;Signal;HPM_P1;HPM_P2
2022/09/02 00:02:16;;;;;;;2.70;1.70;;;;;;;16.01;55.40;101535.84;5044284;28;20492;-85
2022/09/02 00:04:42;;;;;;;2.77;1.97;;;;;;;15.98;55.29;101522.66;5043095;28;20047;-87
2022/09/02 00:07:07;;;;;;;2.90;1.80;;;;;;;15.96;55.53;101529.41;5043912;28;20123;-86
2022/09/02 00:09:32;;;;;;;4.40;1.97;;;;;;;15.87;56.06;101528.91;5061391;28;20039;-86
2022/09/02 00:11:58;;;;;;;3.83;1.80;;;;;;;15.80;56.55;101533.63;5061918;28;20047;-85
2022/09/02 00:14:30;;;;;;;4.73;2.00;;;;;;;15.81;56.26;101527.09;5061685;28;20033;-85
2022/09/02 00:16:55;;;;;;;4.43;2.00;;;;;;;15.70;56.46;101523.19;5061717;28;20424;-85
2022/09/02 00:19:24;;;;;;;3.87;1.90;;;;;;;15.66;56.70;101522.81;5061648;28;20112;-85
2022/09/02 00:21:51;;;;;;;3.17;2.00;;;;;;;15.69;56.25;101527.84;5061600;28;20380;-86
2022/09/02 00:24:17;;;;;;;4.83;2.00;;;;;;;15.63;56.67;101531.47;5061149;28;20037;-84
2022/09/02 00:26:44;;;;;;;5.67;1.90;;;;;;;15.59;56.95;101524.81;5061420;28;20124;-86
2022/09/02 00:29:10;;;;;;;5.07;2.30;;;;;;;15.49;57.28;101521.75;5061726;28;20391;-85
2022/09/02 00:31:45;;;;;;;5.50;2.00;;;;;;;15.45;57.59;101523.28;5043249;28;20032;-86
2022/09/02 00:34:11;;;;;;;3.40;1.87;;;;;;;15.36;57.81;101518.13;5061714;28;20082;-87
2022/09/02 00:36:37;;;;;;;2.00;1.80;;;;;;;15.35;58.08;101516.47;5061738;28;20396;-86
2022/09/02 00:39:06;;;;;;;3.33;1.80;;;;;;;15.35;57.64;101521.09;5060956;28;20047;-86
2022/09/02 00:41:32;;;;;;;4.90;1.80;;;;;;;15.34;57.95;101514.81;5059821;28;20419;-86
2022/09/02 00:44:05;;;;;;;2.63;1.80;;;;;;;15.29;57.89;101514.66;5060860;28;20041;-88
2022/09/02 00:46:32;;;;;;;5.07;1.90;;;;;;;15.22;58.48;101508.44;5061479;28;20038;-87
2022/09/02 00:49:09;;;;;;;4.50;2.27;;;;;;;15.17;58.52;101508.28;5061333;28;21539;-87
2022/09/02 00:51:47;;;;;;;3.97;2.00;;;;;;;15.12;58.87;101510.84;5060623;28;20376;-87
2022/09/02 00:54:15;;;;;;;2.70;2.10;;;;;;;15.14;59.15;101506.00;5060425;28;20033;-87
2022/09/02 00:56:43;;;;;;;2.90;2.00;;;;;;;15.03;59.29;101502.13;5060897;28;20060;-87
2022/09/02 00:59:14;;;;;;;4.60;2.30;;;;;;;14.99;59.36;101496.28;5061549;28;20127;-87
2022/09/02 01:01:39;;;;;;;4.20;2.00;;;;;;;14.90;59.63;101496.78;5043021;28;20036;-86
2022/09/02 01:04:05;;;;;;;3.97;2.10;;;;;;;14.92;59.56;101500.13;5061565;28;20035;-85
2022/09/02 01:06:31;;;;;;;3.60;2.10;;;;;;;14.91;59.62;101496.56;5058988;28;20048;-85
2022/09/02 01:09:06;;;;;;;3.50;2.00;;;;;;;14.81;60.08;101504.41;5014465;28;20515;-85
2022/09/02 01:11:41;;;;;;;5.10;2.20;;;;;;;14.79;59.97;101496.47;5060926;28;20038;-86
2022/09/02 01:14:08;;;;;;;4.17;2.00;;;;;;;14.77;60.02;101500.47;5061409;28;21766;-86
2022/09/02 01:16:40;;;;;;;3.83;2.10;;;;;;;14.78;60.10;101494.81;5061305;28;20039;-85
2022/09/02 01:19:14;;;;;;;4.73;2.50;;;;;;;14.71;60.38;101493.19;5060346;28;20047;-86
2022/09/02 01:21:45;;;;;;;5.10;2.40;;;;;;;14.66;60.64;101496.56;5059907;28;20054;-86
2022/09/02 01:24:10;;;;;;;5.43;2.43;;;;;;;14.61;60.84;101494.50;5019737;28;20099;-86
2022/09/02 01:26:36;;;;;;;3.60;2.40;;;;;;;14.50;61.12;101493.31;5032383;28;20028;-86
2022/09/02 01:29:02;;;;;;;4.53;2.47;;;;;;;14.60;60.85;101497.44;5026311;28;20443;-86
2022/09/02 01:31:28;;;;;;;4.20;2.60;;;;;;;14.54;60.86;101488.28;5041076;28;20032;-87
2022/09/02 01:33:54;;;;;;;4.03;2.37;;;;;;;14.48;61.26;101484.56;5040330;28;20040;-86
2022/09/02 01:36:19;;;;;;;6.57;2.23;;;;;;;14.52;60.95;101493.09;5039994;28;20060;-86
2022/09/02 01:38:45;;;;;;;6.63;2.40;;;;;;;14.48;61.28;101483.69;5040702;28;20737;-87
2022/09/02 01:41:10;;;;;;;4.33;2.53;;;;;;;14.41;61.30;101477.47;5021742;28;20298;-85
2022/09/02 01:43:36;;;;;;;6.10;2.40;;;;;;;14.42;61.37;101481.88;5023070;28;20113;-87
2022/09/02 01:46:02;;;;;;;4.27;2.30;;;;;;;14.40;61.67;101478.53;5038744;28;20048;-86
2022/09/02 01:48:27;;;;;;;3.83;2.30;;;;;;;14.39;61.62;101485.88;5040735;28;20729;-87
2022/09/02 01:50:58;;;;;;;5.33;2.60;;;;;;;14.39;61.49;101482.28;5040192;28;20037;-87
2022/09/02 01:53:25;;;;;;;2.53;2.30;;;;;;;14.39;61.49;101477.69;5039972;28;20065;-84
2022/09/02 01:55:51;;;;;;;3.00;2.33;;;;;;;14.30;61.74;101476.28;5041156;28;20122;-86
2022/09/02 01:58:16;;;;;;;6.00;2.40;;;;;;;14.30;61.78;101476.28;5041155;28;21014;-85
2022/09/02 02:00:42;;;;;;;3.33;2.30;;;;;;;14.34;61.77;101480.25;5040182;28;20561;-86
2022/09/02 02:03:08;;;;;;;4.23;2.40;;;;;;;14.30;61.61;101474.41;5026500;28;20033;-86
2022/09/02 02:05:34;;;;;;;3.93;2.17;;;;;;;14.28;61.91;101472.94;5044493;28;20503;-86
2022/09/02 02:07:59;;;;;;;3.03;2.20;;;;;;;14.26;61.84;101475.06;5043652;28;20511;-87
2022/09/02 02:10:25;;;;;;;2.77;2.50;;;;;;;14.31;61.99;101477.97;5044252;28;20051;-86
2022/09/02 02:12:51;;;;;;;3.97;2.40;;;;;;;14.18;62.14;101478.88;5043740;28;20037;-86
2022/09/02 02:15:18;;;;;;;3.83;2.30;;;;;;;14.16;62.40;101475.56;5043863;28;20072;-87
2022/09/02 02:17:44;;;;;;;5.80;2.33;;;;;;;14.13;62.36;101478.72;5044300;28;20342;-85
2022/09/02 02:20:13;;;;;;;4.73;2.40;;;;;;;14.19;62.23;101480.56;5011950;28;20033;-86
2022/09/02 02:22:39;;;;;;;4.93;2.30;;;;;;;14.10;62.47;101476.44;5043671;28;20064;-87
2022/09/02 02:25:05;;;;;;;3.73;2.50;;;;;;;14.22;62.42;101479.28;5043995;28;20032;-86
2022/09/02 02:27:32;;;;;;;5.50;2.40;;;;;;;14.12;62.52;101472.44;5042805;28;20131;-85
2022/09/02 02:29:57;;;;;;;5.20;2.50;;;;;;;14.09;62.68;101472.88;5043141;28;20386;-87
2022/09/02 02:32:24;;;;;;;4.53;2.30;;;;;;;14.08;62.68;101468.47;5043605;28;20052;-86
2022/09/02 02:34:50;;;;;;;2.67;2.20;;;;;;;14.12;62.23;101475.16;5044708;28;20082;-86
2022/09/02 02:37:15;;;;;;;5.87;2.53;;;;;;;14.21;62.35;101466.72;5043293;28;20060;-85
2022/09/02 02:39:42;;;;;;;5.87;2.50;;;;;;;14.15;62.27;101471.16;5044450;28;20115;-87
2022/09/02 02:42:08;;;;;;;4.20;2.37;;;;;;;14.17;62.32;101460.84;5043009;28;20048;-85
2022/09/02 02:44:33;;;;;;;6.57;2.40;;;;;;;14.12;62.37;101474.34;5044145;28;20771;-86
2022/09/02 02:47:00;;;;;;;4.17;2.30;;;;;;;14.14;62.49;101462.16;5042269;28;20037;-86
2022/09/02 02:49:26;;;;;;;4.00;2.20;;;;;;;14.04;62.35;101447.34;5025176;28;20043;-87
2022/09/02 02:51:52;;;;;;;4.47;2.37;;;;;;;14.05;62.77;101458.03;5044056;28;20499;-87
2022/09/02 02:54:19;;;;;;;2.80;2.30;;;;;;;14.07;62.14;101466.81;5043105;28;20392;-86
2022/09/02 02:56:45;;;;;;;5.07;2.40;;;;;;;14.05;62.65;101462.63;5042411;28;20037;-86
2022/09/02 02:59:10;;;;;;;5.07;2.60;;;;;;;13.98;62.85;101449.03;5042557;28;20549;-86
2022/09/02 03:01:36;;;;;;;5.13;2.27;;;;;;;13.96;62.86;101457.44;5025152;28;20101;-86
2022/09/02 03:04:03;;;;;;;3.53;2.20;;;;;;;13.94;62.97;101456.84;5042094;28;20040;-88
2022/09/02 03:06:29;;;;;;;3.37;2.30;;;;;;;13.96;62.97;101449.28;5043066;28;20044;-87
2022/09/02 03:08:55;;;;;;;5.87;2.33;;;;;;;13.90;63.06;101455.63;5042838;28;20476;-86
2022/09/02 03:11:21;;;;;;;5.13;2.60;;;;;;;13.97;63.20;101453.66;5040929;28;20161;-89
2022/09/02 03:13:48;;;;;;;5.20;2.30;;;;;;;13.91;63.14;101446.38;5042174;28;20040;-87
2022/09/02 03:16:15;;;;;;;5.50;2.30;;;;;;;13.93;62.94;101460.63;5042916;28;20090;-87
2022/09/02 03:18:40;;;;;;;5.83;2.30;;;;;;;13.92;63.50;101458.94;5043089;28;20033;-86
2022/09/02 03:21:07;;;;;;;4.57;2.50;;;;;;;13.87;63.44;101455.19;5042886;28;20443;-86
2022/09/02 03:23:32;;;;;;;6.53;2.60;;;;;;;13.87;63.50;101456.06;5041698;28;20095;-87
2022/09/02 03:25:58;;;;;;;5.80;2.40;;;;;;;13.76;63.66;101445.84;5042858;28;20083;-85
2022/09/02 03:28:23;;;;;;;4.80;2.27;;;;;;;13.82;63.79;101447.69;5040399;28;20089;-85
2022/09/02 03:30:49;;;;;;;5.53;2.53;;;;;;;13.79;63.71;101453.56;5041382;28;20094;-86
2022/09/02 03:33:17;;;;;;;3.37;2.40;;;;;;;13.73;64.10;101452.56;5041825;28;20041;-86
2022/09/02 03:35:44;;;;;;;3.43;2.30;;;;;;;13.77;64.08;101450.25;5042321;28;20037;-87
2022/09/02 03:38:11;;;;;;;7.77;2.37;;;;;;;13.68;64.27;101447.78;5042211;28;20120;-86
2022/09/02 03:40:38;;;;;;;4.00;2.50;;;;;;;13.69;64.67;101443.16;5028357;28;20041;-87
2022/09/02 03:43:04;;;;;;;4.53;2.53;;;;;;;13.63;64.41;101446.75;5041972;28;20112;-87
2022/09/02 03:45:31;;;;;;;3.10;2.40;;;;;;;13.60;64.69;101442.59;5043010;28;20043;-86
2022/09/02 03:47:58;;;;;;;5.07;2.30;;;;;;;13.60;64.67;101441.72;5023890;28;20048;-86
2022/09/02 03:50:26;;;;;;;5.17;2.60;;;;;;;13.57;64.89;101439.44;5041696;28;20040;-86
2022/09/02 03:52:53;;;;;;;3.17;2.70;;;;;;;13.53;65.11;101432.75;5042059;28;20443;-86
2022/09/02 03:55:19;;;;;;;7.17;2.60;;;;;;;13.53;64.98;101439.06;5042056;28;20049;-85
2022/09/02 03:57:45;;;;;;;3.70;2.73;;;;;;;13.53;65.14;101430.91;5024241;28;20169;-87
2022/09/02 04:00:13;;;;;;;6.10;2.63;;;;;;;13.56;65.10;101437.78;5042768;28;20041;-85
2022/09/02 04:02:38;;;;;;;3.53;2.50;;;;;;;13.53;65.68;101425.47;5040910;28;20637;-85
2022/09/02 04:05:04;;;;;;;5.57;2.63;;;;;;;13.58;64.63;101431.06;5042484;28;20046;-84
2022/09/02 04:07:30;;;;;;;5.23;2.70;;;;;;;13.58;65.22;101425.63;5041416;28;20420;-86
2022/09/02 04:09:56;;;;;;;5.00;2.47;;;;;;;13.60;64.80;101431.69;5022468;28;20036;-86
2022/09/02 04:12:21;;;;;;;3.47;2.40;;;;;;;13.64;64.67;101430.19;5041246;28;20045;-86
2022/09/02 04:14:47;;;;;;;5.03;2.60;;;;;;;13.66;64.70;101428.06;5042667;28;20119;-86
2022/09/02 04:17:12;;;;;;;5.27;2.90;;;;;;;13.64;64.91;101423.91;5041252;28;20039;-87
2022/09/02 04:19:39;;;;;;;5.33;2.70;;;;;;;13.61;65.04;101427.91;5024462;28;20471;-88
2022/09/02 04:22:06;;;;;;;7.80;3.00;;;;;;;13.63;64.70;101420.34;5010038;28;20053;-84
2022/09/02 04:24:31;;;;;;;4.47;2.63;;;;;;;13.75;64.42;101425.09;5041882;28;20057;-85
2022/09/02 04:26:56;;;;;;;5.53;2.57;;;;;;;13.75;64.08;101420.50;5041206;28;20606;-86
2022/09/02 04:29:23;;;;;;;4.60;2.60;;;;;;;13.75;64.19;101416.94;5041018;28;20040;-85
2022/09/02 04:31:48;;;;;;;5.00;2.40;;;;;;;13.76;64.57;101422.19;5023077;28;20042;-85
2022/09/02 04:34:14;;;;;;;4.13;2.67;;;;;;;13.76;64.37;101413.16;5041745;28;20035;-85
2022/09/02 04:36:55;;;;;;;3.73;2.73;;;;;;;13.81;64.46;101410.63;5040659;28;20618;-86
2022/09/02 04:39:21;;;;;;;5.43;2.67;;;;;;;13.84;64.43;101415.63;5023057;28;20223;-86
2022/09/02 04:41:46;;;;;;;5.13;2.83;;;;;;;13.87;64.27;101408.91;5041252;28;20751;-85
2022/09/02 04:44:11;;;;;;;3.00;2.70;;;;;;;13.87;63.97;101400.72;5009469;28;20041;-86
2022/09/02 04:46:37;;;;;;;6.13;2.87;;;;;;;13.89;63.98;101409.53;5040813;28;20090;-85
2022/09/02 04:49:03;;;;;;;5.13;2.90;;;;;;;13.91;63.93;101410.13;5040451;28;20045;-86
2022/09/02 04:51:28;;;;;;;5.97;2.83;;;;;;;13.92;63.95;101407.19;5041424;28;20039;-85
2022/09/02 04:53:54;;;;;;;5.23;2.80;;;;;;;13.92;64.28;101409.91;5042501;28;20033;-85
2022/09/02 04:56:23;;;;;;;6.33;2.57;;;;;;;13.93;63.72;101416.19;5041167;28;20037;-83
2022/09/02 04:58:50;;;;;;;4.47;2.77;;;;;;;13.93;64.19;101414.31;5040210;28;20033;-84
2022/09/02 05:01:20;;;;;;;5.13;2.90;;;;;;;13.88;63.92;101403.22;5041219;28;20025;-85
2022/09/02 05:03:46;;;;;;;4.73;2.80;;;;;;;13.95;63.95;101408.63;5023391;28;20044;-86
2022/09/02 05:06:17;;;;;;;6.50;3.17;;;;;;;13.98;63.68;101417.22;5022582;28;20041;-85
2022/09/02 05:08:43;;;;;;;4.43;2.80;;;;;;;14.00;63.74;101414.25;5040932;28;20644;-86
2022/09/02 05:11:12;;;;;;;7.30;3.00;;;;;;;14.01;64.13;101418.66;5023419;28;20032;-85
2022/09/02 05:13:39;;;;;;;7.83;3.10;;;;;;;14.01;64.30;101427.66;5040702;28;20040;-85
2022/09/02 05:16:05;;;;;;;4.43;2.90;;;;;;;14.05;64.52;101416.31;5041051;28;20037;-87
2022/09/02 05:18:30;;;;;;;5.83;3.07;;;;;;;14.06;63.87;101413.38;5040634;28;20045;-84
2022/09/02 05:20:56;;;;;;;7.17;3.00;;;;;;;14.08;64.01;101411.25;5041579;28;20025;-85
2022/09/02 05:23:21;;;;;;;5.70;3.17;;;;;;;14.09;63.94;101409.34;5040570;28;20057;-85
2022/09/02 05:25:46;;;;;;;5.70;3.10;;;;;;;14.14;63.90;101414.97;5023344;28;20036;-87
2022/09/02 05:28:12;;;;;;;7.33;3.20;;;;;;;14.20;64.09;101419.56;5040643;28;20032;-85
2022/09/02 05:30:40;;;;;;;9.13;2.93;;;;;;;14.23;63.58;101412.84;5041291;28;20047;-85
2022/09/02 05:33:07;;;;;;;8.93;3.40;;;;;;;14.23;63.46;101416.38;5040405;28;20535;-85
2022/09/02 05:35:33;;;;;;;5.63;3.00;;;;;;;14.26;63.69;101423.28;5038918;28;20647;-85
2022/09/02 05:37:58;;;;;;;6.83;2.80;;;;;;;14.30;63.47;101413.59;5044236;28;20049;-85
2022/09/02 05:40:25;;;;;;;8.67;3.20;;;;;;;14.33;63.70;101422.19;5044853;28;20041;-84
2022/09/02 05:42:50;;;;;;;7.07;3.10;;;;;;;14.34;64.02;101412.91;5045147;28;20059;-85
2022/09/02 05:45:16;;;;;;;7.03;3.00;;;;;;;14.38;63.60;101418.78;5045184;28;20041;-86
2022/09/02 05:47:41;;;;;;;6.80;3.00;;;;;;;14.41;63.95;101417.50;5044838;28;20071;-86
2022/09/02 05:50:07;;;;;;;4.50;2.80;;;;;;;14.46;63.64;101420.38;5044787;28;20089;-86
2022/09/02 05:52:33;;;;;;;5.17;2.83;;;;;;;14.46;64.32;101420.38;5045076;28;20032;-85
2022/09/02 05:54:59;;;;;;;7.10;3.00;;;;;;;14.50;64.03;101419.72;5044291;28;20033;-87
2022/09/02 05:57:24;;;;;;;7.03;3.00;;;;;;;14.53;63.26;101415.69;5044069;28;20382;-85
2022/09/02 05:59:54;;;;;;;9.80;3.10;;;;;;;14.56;63.67;101419.88;5042067;28;20075;-87
2022/09/02 06:02:22;;;;;;;4.83;3.03;;;;;;;14.61;63.32;101420.88;5043615;28;20489;-86
2022/09/02 06:04:50;;;;;;;6.13;2.70;;;;;;;14.66;63.36;101421.06;5044263;28;20130;-86
2022/09/02 06:07:17;;;;;;;6.23;2.60;;;;;;;14.72;63.67;101415.78;5044273;28;20040;-85
2022/09/02 06:09:43;;;;;;;6.20;2.80;;;;;;;14.79;63.09;101419.25;5044518;28;20036;-85
2022/09/02 06:12:10;;;;;;;4.50;2.70;;;;;;;14.83;63.19;101415.84;5043216;28;20051;-88
2022/09/02 06:14:36;;;;;;;6.53;2.70;;;;;;;14.82;63.12;101407.88;5042576;28;20448;-84
2022/09/02 06:17:03;;;;;;;5.40;2.83;;;;;;;14.90;62.71;101410.31;5044334;28;20128;-85
2022/09/02 06:19:29;;;;;;;5.30;2.60;;;;;;;14.95;62.53;101413.19;5042118;28;20036;-85
2022/09/02 06:21:55;;;;;;;6.53;3.00;;;;;;;14.99;62.80;101422.59;5044138;28;20035;-85
2022/09/02 06:24:22;;;;;;;4.87;2.90;;;;;;;15.02;62.90;101416.69;5043689;28;20033;-87
2022/09/02 06:26:47;;;;;;;5.57;3.03;;;;;;;15.07;62.76;101417.88;5044568;28;20037;-83
2022/09/02 06:29:13;;;;;;;5.97;2.77;;;;;;;15.10;62.85;101414.72;5043862;28;20439;-87
2022/09/02 06:31:44;;;;;;;7.47;2.90;;;;;;;15.15;62.76;101420.31;5043961;28;20037;-85
2022/09/02 06:34:12;;;;;;;4.83;2.80;;;;;;;15.19;62.84;101413.34;5025944;28;20492;-84
2022/09/02 06:36:38;;;;;;;7.37;2.60;;;;;;;15.25;62.16;101414.34;5043616;28;20033;-84
2022/09/02 06:39:04;;;;;;;6.90;2.70;;;;;;;15.30;62.65;101409.84;5044176;28;20064;-83
2022/09/02 06:41:32;;;;;;;9.70;2.90;;;;;;;15.36;62.41;101414.38;5043136;28;20535;-84
2022/09/02 06:44:01;;;;;;;7.87;2.97;;;;;;;15.38;62.35;101410.59;5043089;28;20508;-86
2022/09/02 06:46:30;;;;;;;7.17;2.80;;;;;;;15.43;62.28;101408.00;5043262;28;20040;-85
2022/09/02 06:48:56;;;;;;;4.63;2.70;;;;;;;15.47;61.56;101410.03;5042856;28;20037;-86
2022/09/02 06:51:44;;;;;;;6.03;2.70;;;;;;;15.53;61.65;101413.75;5043653;28;20029;-87
2022/09/02 06:54:13;;;;;;;6.77;2.60;;;;;;;15.59;61.38;101407.34;5042616;28;20048;-85
2022/09/02 06:56:39;;;;;;;5.23;2.90;;;;;;;15.65;61.51;101409.19;5042909;28;20039;-85
2022/09/02 06:59:05;;;;;;;8.60;2.80;;;;;;;15.70;60.85;101405.72;5025628;28;20384;-84
2022/09/02 07:01:32;;;;;;;4.70;2.90;;;;;;;15.78;61.16;101415.50;5043307;28;20142;-84
2022/09/02 07:06:48;;;;;;;6.82;2.80;;;;;;;15.90;60.95;101402.75;5042304;28;20051;-85
2022/09/02 07:09:17;;;;;;;7.23;2.77;;;;;;;15.97;60.80;101400.72;5041593;28;20041;-84
2022/09/02 07:11:46;;;;;;;7.40;2.93;;;;;;;16.04;60.42;101406.91;5043607;28;20033;-89
2022/09/02 07:14:16;;;;;;;6.17;3.23;;;;;;;16.06;60.88;101397.66;5042246;28;20073;-86
2022/09/02 07:16:44;;;;;;;5.50;2.60;;;;;;;16.12;60.62;101394.00;5042968;28;20033;-85
2022/09/02 07:19:12;;;;;;;9.60;3.00;;;;;;;16.21;60.86;101395.31;5024506;28;20036;-84
2022/09/02 07:21:39;;;;;;;9.53;2.90;;;;;;;16.26;60.86;101389.94;5043121;28;20446;-84
2022/09/02 07:24:05;;;;;;;9.07;3.10;;;;;;;16.34;60.14;101392.31;5024858;28;20067;-87
2022/09/02 07:26:30;;;;;;;6.17;2.80;;;;;;;16.41;60.62;101397.69;5025907;28;20037;-86
2022/09/02 07:28:57;;;;;;;7.50;2.90;;;;;;;16.50;60.24;101395.44;5026053;28;20421;-85
2022/09/02 07:31:22;;;;;;;6.23;3.03;;;;;;;16.57;60.13;101395.31;5026132;28;20061;-84
2022/09/02 07:34:05;;;;;;;7.17;2.90;;;;;;;16.65;59.90;101390.31;5024259;28;20064;-86
2022/09/02 07:36:31;;;;;;;6.53;3.00;;;;;;;16.71;59.53;101389.38;5026140;28;20036;-84
2022/09/02 07:38:57;;;;;;;7.53;3.10;;;;;;;16.82;59.54;101386.84;5026413;28;20041;-84
2022/09/02 07:41:23;;;;;;;7.40;3.10;;;;;;;16.88;59.50;101397.66;5007150;28;20084;-83
2022/09/02 07:43:49;;;;;;;5.93;3.13;;;;;;;16.98;59.08;101388.03;5026409;28;20040;-85
2022/09/02 07:46:15;;;;;;;5.43;3.10;;;;;;;17.07;58.74;101391.22;5008963;28;20449;-87
2022/09/02 07:48:40;;;;;;;5.80;3.10;;;;;;;17.12;58.98;101388.59;5026377;28;20618;-84
2022/09/02 07:51:07;;;;;;;10.87;3.50;;;;;;;17.12;58.64;101378.50;5026296;28;20594;-84
2022/09/02 07:53:33;;;;;;;5.23;3.10;;;;;;;17.23;58.45;101387.75;5026722;28;20068;-85
2022/09/02 07:55:59;;;;;;;5.93;3.30;;;;;;;17.29;58.33;101386.75;5025400;28;20641;-86
2022/09/02 07:58:25;;;;;;;9.50;3.37;;;;;;;17.36;58.55;101390.16;5025526;28;20722;-84
2022/09/02 08:00:51;;;;;;;9.17;3.20;;;;;;;17.45;58.99;101387.03;5024543;28;20355;-85
2022/09/02 08:03:18;;;;;;;6.83;3.23;;;;;;;17.55;58.17;101393.53;5026159;28;20045;-85
2022/09/02 08:06:03;;;;;;;7.97;3.20;;;;;;;17.67;58.24;101396.22;5025152;28;20037;-84
2022/09/02 08:08:28;;;;;;;7.70;3.35;;;;;;;17.74;57.73;101398.00;5024477;28;20033;-87
2022/09/02 08:10:54;;;;;;;9.33;3.20;;;;;;;17.79;57.81;101395.31;5026037;28;20076;-85
2022/09/02 08:13:21;;;;;;;8.83;3.00;;;;;;;17.92;57.45;101386.81;5024538;28;20044;-84
2022/09/02 08:15:47;;;;;;;7.00;3.40;;;;;;;17.98;56.71;101391.34;5025098;28;20061;-84
2022/09/02 08:18:12;;;;;;;9.73;3.20;;;;;;;18.06;56.71;101387.34;5024962;28;20484;-85
2022/09/02 08:20:38;;;;;;;7.13;3.50;;;;;;;18.11;56.94;101384.66;5024794;28;20052;-86
2022/09/02 08:23:08;;;;;;;5.83;3.20;;;;;;;18.21;56.87;101386.78;5033574;28;21400;-85
2022/09/02 08:25:34;;;;;;;9.03;3.50;;;;;;;18.29;56.98;101380.88;5041981;28;20040;-87
2022/09/02 08:28:00;;;;;;;8.70;3.60;;;;;;;18.38;56.27;101384.00;5041233;28;20041;-85
2022/09/02 08:30:26;;;;;;;7.03;3.80;;;;;;;18.50;55.53;101373.75;5041037;28;20513;-84
2022/09/02 08:32:52;;;;;;;6.43;3.30;;;;;;;18.62;55.72;101373.66;5041456;28;20032;-85
2022/09/02 08:35:17;;;;;;;8.73;3.83;;;;;;;18.72;55.42;101373.78;5040841;28;20534;-85
2022/09/02 08:37:43;;;;;;;11.20;3.87;;;;;;;18.86;55.05;101376.16;5040566;28;20037;-85
2022/09/02 08:40:15;;;;;;;7.67;3.70;;;;;;;18.96;54.68;101362.59;5021873;28;20037;-86
2022/09/02 08:42:54;;;;;;;7.47;3.00;;;;;;;19.18;54.63;101367.25;5040809;28;20400;-85
2022/09/02 08:45:26;;;;;;;8.17;3.77;;;;;;;19.32;54.04;101365.75;5038735;28;20043;-85
2022/09/02 08:48:33;;;;;;;5.63;3.27;;;;;;;19.53;53.88;101366.81;5041011;28;20137;-83
2022/09/02 08:51:04;;;;;;;10.07;3.83;;;;;;;19.78;53.23;101367.31;5040860;28;20068;-85
2022/09/02 08:53:51;;;;;;;7.55;3.47;;;;;;;19.89;53.25;101364.41;5041044;28;20028;-86
2022/09/02 08:56:17;;;;;;;8.35;3.33;;;;;;;20.01;52.88;101369.75;5041345;28;20033;-86
2022/09/02 08:59:30;;;;;;;7.35;3.78;;;;;;;20.14;52.76;101362.13;5040848;28;20033;-87
2022/09/02 09:02:39;;;;;;;6.07;3.20;;;;;;;20.33;53.33;101366.13;5040472;28;20086;-86
2022/09/02 09:05:08;;;;;;;7.95;3.35;;;;;;;20.49;52.97;101367.03;5040841;28;20033;-85
2022/09/02 09:07:45;;;;;;;7.68;3.83;;;;;;;20.64;52.40;101366.31;5041538;28;20032;-84
2022/09/02 09:10:23;;;;;;;6.63;3.35;;;;;;;20.88;52.48;101365.91;5040726;28;20043;-86
2022/09/02 09:13:09;;;;;;;7.63;3.20;;;;;;;21.01;51.97;101373.69;5045287;28;20037;-86
2022/09/02 09:15:44;;;;;;;6.07;3.60;;;;;;;21.08;50.71;101367.94;5044781;28;20401;-83
2022/09/02 09:18:17;;;;;;;6.15;3.67;;;;;;;21.19;50.47;101360.53;5045418;28;20033;-84
2022/09/02 09:20:44;;;;;;;8.23;3.50;;;;;;;21.33;50.64;101366.34;5026809;28;20358;-86
2022/09/02 09:23:32;;;;;;;7.10;3.90;;;;;;;21.48;50.36;101358.09;5045377;28;20709;-86
2022/09/02 09:26:10;;;;;;;10.80;3.63;;;;;;;21.67;50.72;101363.13;5045262;28;20489;-86
2022/09/02 09:28:47;;;;;;;9.65;4.10;;;;;;;21.74;48.32;101356.22;5030041;28;20032;-85
2022/09/02 09:31:17;;;;;;;7.55;4.10;;;;;;;21.77;48.08;101356.78;5044772;28;20369;-86
2022/09/02 09:33:58;;;;;;;9.25;4.30;;;;;;;21.90;47.90;101364.53;5027350;28;20036;-86
2022/09/02 09:36:56;;;;;;;7.68;3.95;;;;;;;21.98;47.71;101366.72;5043697;28;20163;-83
2022/09/02 09:39:25;;;;;;;7.28;3.75;;;;;;;22.06;48.05;101354.31;5010397;28;20036;-84
2022/09/02 09:41:57;;;;;;;7.68;3.80;;;;;;;22.16;47.75;101350.72;5044631;28;20047;-84
2022/09/02 09:44:37;;;;;;;9.25;4.00;;;;;;;22.29;47.16;101350.16;5044119;28;20431;-84
2022/09/02 09:47:15;;;;;;;8.73;3.88;;;;;;;22.33;46.84;101348.47;5045491;28;20440;-85
2022/09/02 09:49:41;;;;;;;8.43;3.78;;;;;;;22.41;46.50;101347.94;5043689;28;20044;-84
2022/09/02 09:52:07;;;;;;;10.50;4.40;;;;;;;22.55;45.93;101342.66;5042861;28;20037;-85
2022/09/02 09:54:33;;;;;;;9.70;4.10;;;;;;;22.77;46.01;101350.56;5044408;28;20040;-85
2022/09/02 09:57:15;;;;;;;10.32;3.65;;;;;;;23.00;46.03;101353.00;5045482;28;20118;-87
2022/09/02 09:59:47;;;;;;;5.82;4.20;;;;;;;22.97;45.05;101348.84;5043887;28;20832;-92
2022/09/02 10:02:19;;;;;;;6.63;4.20;;;;;;;23.02;45.21;101346.03;5026314;28;20127;-85
2022/09/02 10:04:45;;;;;;;11.40;4.57;;;;;;;23.15;44.16;101341.06;5043699;28;20040;-86
2022/09/02 10:07:12;;;;;;;7.80;4.20;;;;;;;23.42;44.71;101344.19;5044643;28;20040;-87
2022/09/02 10:09:37;;;;;;;11.20;4.20;;;;;;;23.42;43.22;101335.91;5044208;28;20051;-86
2022/09/02 10:12:40;;;;;;;9.35;4.00;;;;;;;23.62;43.65;101341.59;5043734;28;20469;-85
2022/09/02 10:15:07;;;;;;;8.07;3.97;;;;;;;23.77;43.38;101333.16;5043099;28;20035;-87
2022/09/02 10:17:50;;;;;;;12.02;3.95;;;;;;;24.04;43.09;101332.66;5043897;28;20048;-86
2022/09/02 10:20:24;;;;;;;8.90;4.10;;;;;;;24.32;42.50;101338.50;5025582;28;20037;-84
2022/09/02 10:22:57;;;;;;;10.43;4.22;;;;;;;24.64;42.06;101328.72;5043605;28;20103;-88
2022/09/02 10:25:41;;;;;;;10.30;4.35;;;;;;;24.77;41.60;101333.56;5044052;28;20074;-84
2022/09/02 10:28:21;;;;;;;;;;;;;;;25.05;42.25;101328.22;5044458;28;20044;-84
2022/09/02 10:34:21;;;;;;;8.15;3.95;;;;;;;25.33;39.50;101314.53;5020838;28;20160;-82
2022/09/02 10:37:05;;;;;;;9.98;3.90;;;;;;;25.56;38.88;101300.88;5044096;28;20036;-85
2022/09/02 10:39:30;;;;;;;6.00;3.50;;;;;;;25.70;39.02;101293.41;5043178;28;20082;-85
2022/09/02 10:42:09;;;;;;;6.25;3.15;;;;;;;25.78;37.84;101298.28;5025654;28;20041;-84
2022/09/02 10:45:00;;;;;;;6.22;3.13;;;;;;;26.04;37.74;101303.38;5042216;28;20112;-83
2022/09/02 10:47:36;;;;;;;4.95;2.60;;;;;;;26.13;36.35;101308.25;5043195;28;20029;-85
2022/09/02 10:50:33;;;;;;;4.55;2.50;;;;;;;26.34;37.06;101301.16;5028436;28;20051;-84
2022/09/02 10:53:02;;;;;;;5.10;2.70;;;;;;;26.34;35.74;101300.34;5043642;28;20036;-86
2022/09/02 10:55:57;;;;;;;5.30;2.30;;;;;;;26.43;34.60;101304.06;5043115;28;20128;-88
2022/09/02 10:58:47;;;;;;;8.60;2.40;;;;;;;26.62;36.04;101298.38;5027827;28;20045;-87
2022/09/02 11:01:24;;;;;;;6.47;2.20;;;;;;;26.58;35.61;101300.94;5042455;28;20048;-86
2022/09/02 11:03:55;;;;;;;5.43;2.85;;;;;;;26.39;33.37;101292.72;5042772;28;20668;-89
2022/09/02 11:06:27;;;;;;;6.20;2.40;;;;;;;26.35;34.20;101288.09;5042634;28;21120;-83
2022/09/02 11:08:55;;;;;;;4.90;2.30;;;;;;;26.34;33.48;101281.72;5043535;28;20033;-85
2022/09/02 11:11:31;;;;;;;4.13;2.22;;;;;;;26.39;34.17;101289.13;5040189;28;20777;-85
2022/09/02 11:14:12;;;;;;;3.70;2.20;;;;;;;26.60;34.30;101286.75;5041200;28;20358;-87
2022/09/02 11:16:48;;;;;;;6.07;2.30;;;;;;;26.52;34.54;101284.69;5039624;28;20429;-87
2022/09/02 11:19:29;;;;;;;2.60;2.25;;;;;;;26.75;34.33;101277.28;5039183;28;20512;-86
2022/09/02 11:22:21;;;;;;;4.13;2.40;;;;;;;26.82;33.82;101274.94;5040126;28;20421;-89
2022/09/02 11:25:01;;;;;;;3.80;2.30;;;;;;;26.81;33.43;101261.34;5039855;28;20033;-86
2022/09/02 11:27:40;;;;;;;4.13;2.22;;;;;;;26.89;33.14;101272.53;5041372;28;20037;-86
2022/09/02 11:30:15;;;;;;;4.63;2.35;;;;;;;26.87;32.48;101266.44;5039821;28;20116;-85
2022/09/02 11:32:51;;;;;;;4.90;2.10;;;;;;;26.95;32.71;101270.47;5039646;28;20102;-88
2022/09/02 11:35:23;;;;;;;5.88;2.70;;;;;;;26.92;32.39;101259.97;5040143;28;20052;-86
2022/09/02 11:37:54;;;;;;;3.67;2.25;;;;;;;27.04;32.55;101246.34;5040596;28;20128;-87
2022/09/02 11:40:20;;;;;;;4.03;2.10;;;;;;;27.20;32.58;101257.94;5039498;28;20102;-87
2022/09/02 11:43:11;;;;;;;4.03;2.20;;;;;;;27.25;31.81;101254.19;5039444;28;20036;-88